Time;durP1;ratioP1;P1;durP2;ratioP2;P2;SDS_P1;SDS_P2;PMS_P1;PMS_P2;Temp;Humidity;BMP_temperature;BMP_pressure;BME280_temperature;BME280_humidity;BME280_pressure;Samples;Min_cycle;Max_cycle;Signal;HPM_P1;HPM_P2
2021/03/19 00:01:44;;;;;;;12.80;8.57;;;;;;;3.88;95.21;100406.42;624809;229;24894;-77
2021/03/19 00:04:12;;;;;;;12.57;8.17;;;;;;;3.88;95.59;100406.89;620733;229;24918;-77
2021/03/19 00:06:40;;;;;;;16.23;10.38;;;;;;;4.25;93.83;100401.49;631381;225;32777;-77
2021/03/19 00:09:08;;;;;;;13.03;9.23;;;;;;;3.87;95.86;100402.66;640323;221;23780;-78
2021/03/19 00:11:36;;;;;;;10.37;8.00;;;;;;;3.85;95.92;100403.23;638078;224;24895;-78
2021/03/19 00:14:04;;;;;;;13.73;8.20;;;;;;;3.85;95.57;100404.52;639530;224;24899;-77
2021/03/19 00:16:32;;;;;;;12.30;7.97;;;;;;;3.93;96.04;100404.84;639201;224;24947;-76
2021/03/19 00:18:59;;;;;;;11.87;7.70;;;;;;;3.88;95.79;100399.99;639553;220;31257;-77
2021/03/19 00:21:27;;;;;;;13.03;7.93;;;;;;;3.99;95.79;100401.89;637825;224;24928;-77
2021/03/19 00:23:55;;;;;;;12.60;8.40;;;;;;;3.71;95.99;100407.14;638681;224;24880;-78
2021/03/19 00:26:23;;;;;;;16.17;8.73;;;;;;;3.79;96.26;100400.56;617883;229;25234;-77
2021/03/19 00:28:51;;;;;;;16.83;8.53;;;;;;;3.87;96.25;100405.23;636824;221;27064;-77
2021/03/19 00:31:19;;;;;;;14.00;9.20;;;;;;;3.86;96.36;100398.45;639697;223;24872;-76
2021/03/19 00:33:47;;;;;;;13.80;8.67;;;;;;;3.74;96.58;100391.50;640283;223;24921;-77
2021/03/19 00:36:15;;;;;;;13.70;8.70;;;;;;;3.90;97.14;100399.07;640885;223;26073;-77
2021/03/19 00:38:43;;;;;;;16.93;9.40;;;;;;;3.91;96.50;100390.42;642548;220;24957;-77
2021/03/19 00:41:11;;;;;;;14.53;8.17;;;;;;;3.87;96.96;100388.05;627834;229;28079;-77
2021/03/19 00:43:39;;;;;;;14.43;9.67;;;;;;;3.87;97.04;100388.52;640809;223;24896;-77
2021/03/19 00:46:06;;;;;;;15.63;9.30;;;;;;;4.02;97.16;100386.71;642164;224;24893;-77
2021/03/19 00:48:35;;;;;;;16.97;8.87;;;;;;;3.93;97.20;100385.54;626876;224;24890;-77
2021/03/19 00:51:03;;;;;;;16.70;8.97;;;;;;;3.81;97.02;100388.92;625532;227;24935;-77
2021/03/19 00:53:31;;;;;;;20.75;12.18;;;;;;;4.40;95.40;100375.20;619218;229;32868;-77
2021/03/19 00:55:59;;;;;;;18.15;12.20;;;;;;;4.39;94.13;100373.09;633791;224;32774;-77
2021/03/19 00:58:27;;;;;;;16.30;10.30;;;;;;;4.00;95.37;100375.23;633182;225;23767;-77
2021/03/19 01:00:55;;;;;;;13.10;8.90;;;;;;;3.60;97.67;100392.84;624411;229;25092;-77
2021/03/19 01:03:23;;;;;;;15.97;9.03;;;;;;;3.60;99.15;100383.37;627696;228;24943;-77
2021/03/19 01:05:51;;;;;;;14.47;7.37;;;;;;;3.76;98.40;100376.80;625189;229;24965;-77
2021/03/19 01:08:19;;;;;;;11.53;8.30;;;;;;;3.63;98.67;100375.92;638914;221;24991;-77
2021/03/19 01:10:47;;;;;;;11.90;8.37;;;;;;;3.73;98.89;100374.42;633379;225;28145;-77
2021/03/19 01:13:15;;;;;;;14.30;7.83;;;;;;;3.82;98.64;100380.28;629027;223;25951;-76
2021/03/19 01:15:42;;;;;;;12.83;8.37;;;;;;;3.79;98.58;100379.17;627725;225;25038;-77
2021/03/19 01:18:10;;;;;;;17.73;8.03;;;;;;;3.78;98.79;100382.66;625194;224;24907;-76
2021/03/19 01:20:38;;;;;;;14.73;8.30;;;;;;;3.91;98.18;100377.56;638486;224;24956;-77
2021/03/19 01:23:06;;;;;;;11.00;7.83;;;;;;;3.86;97.92;100372.27;638088;224;25213;-76
2021/03/19 01:25:34;;;;;;;15.10;10.23;;;;;;;4.22;96.68;100372.06;634219;224;32712;-77
2021/03/19 01:28:02;;;;;;;15.80;11.25;;;;;;;4.28;96.71;100371.69;633509;221;32783;-77
2021/03/19 01:30:30;;;;;;;13.60;9.10;;;;;;;4.07;96.15;100373.07;625102;229;23858;-77
2021/03/19 01:32:58;;;;;;;14.73;9.77;;;;;;;3.70;97.68;100378.02;639131;224;28088;-78
2021/03/19 01:35:26;;;;;;;15.10;9.30;;;;;;;3.80;98.30;100380.81;639574;224;24878;-77
2021/03/19 01:37:54;;;;;;;16.45;10.98;;;;;;;4.34;97.25;100371.73;619586;226;32767;-76
2021/03/19 01:40:23;;;;;;;15.60;8.93;;;;;;;4.08;97.16;100371.71;626008;229;25969;-76
2021/03/19 01:42:51;;;;;;;12.60;8.53;;;;;;;3.88;98.10;100374.27;624291;229;24899;-76
2021/03/19 01:45:54;;;;;;;17.53;9.20;;;;;;;3.69;99.11;100378.12;639132;222;24948;-76
2021/03/19 01:48:33;;;;;;;16.30;9.27;;;;;;;3.63;99.20;100366.92;628635;224;24902;-77
2021/03/19 01:51:11;;;;;;;16.32;11.65;;;;;;;4.29;96.83;100352.73;622753;229;32768;-76
2021/03/19 01:53:50;;;;;;;15.30;10.27;;;;;;;3.80;97.20;100348.66;643051;223;23760;-77
2021/03/19 01:56:28;;;;;;;14.67;9.53;;;;;;;3.48;99.04;100352.83;640293;224;24904;-77
2021/03/19 01:59:07;;;;;;;16.17;10.20;;;;;;;3.72;99.74;100351.73;640114;220;24887;-77
2021/03/19 02:01:45;;;;;;;15.80;9.00;;;;;;;3.77;99.40;100351.44;638583;225;28091;-76
2021/03/19 02:04:24;;;;;;;15.20;10.30;;;;;;;3.61;99.97;100349.48;638346;224;24934;-77
2021/03/19 02:07:02;;;;;;;17.92;12.50;;;;;;;4.14;97.62;100342.98;626066;224;33003;-77
2021/03/19 02:09:41;;;;;;;19.27;13.58;;;;;;;4.35;96.41;100345.05;612484;230;32791;-77
2021/03/19 02:12:19;;;;;;;18.57;12.40;;;;;;;3.89;97.29;100345.51;638767;224;23960;-76
2021/03/19 02:14:58;;;;;;;20.83;12.00;;;;;;;3.86;99.07;100347.82;638218;224;24915;-77
2021/03/19 02:17:36;;;;;;;16.43;11.20;;;;;;;3.96;98.32;100348.06;637773;221;24904;-77
2021/03/19 02:20:31;;;;;;;17.73;11.80;;;;;;;3.83;98.08;100342.88;625713;229;24927;-77
2021/03/19 02:23:09;;;;;;;17.03;11.67;;;;;;;3.70;99.20;100354.05;619967;229;28127;-77
2021/03/19 02:25:48;;;;;;;15.37;11.20;;;;;;;3.58;100.00;100347.94;626351;229;24987;-77
2021/03/19 02:28:27;;;;;;;16.80;10.40;;;;;;;3.62;99.71;100345.98;619422;229;25075;-77
2021/03/19 02:31:05;;;;;;;15.73;11.77;;;;;;;3.60;99.80;100342.69;621255;230;24982;-77
2021/03/19 02:33:33;;;;;;;15.10;10.70;;;;;;;3.57;100.00;100340.69;637985;224;24903;-77
2021/03/19 02:36:01;;;;;;;19.53;11.40;;;;;;;3.38;100.00;100341.49;638473;224;25145;-77
2021/03/19 02:38:29;;;;;;;15.13;10.57;;;;;;;3.51;100.00;100347.48;637982;221;24960;-77
2021/03/19 02:40:57;;;;;;;17.57;12.00;;;;;;;3.53;100.00;100341.81;639343;224;24992;-77
2021/03/19 02:43:25;;;;;;;15.00;11.80;;;;;;;3.63;100.00;100341.20;637994;224;24902;-77
2021/03/19 02:45:52;;;;;;;16.80;11.93;;;;;;;3.60;100.00;100343.52;638197;224;24901;-77
2021/03/19 02:48:20;;;;;;;17.17;12.37;;;;;;;3.76;99.68;100336.92;639180;221;25432;-77
2021/03/19 02:50:48;;;;;;;17.67;12.23;;;;;;;3.72;99.58;100333.73;639153;224;24905;-77
2021/03/19 02:53:16;;;;;;;23.00;13.47;;;;;;;3.41;99.68;100336.61;641210;224;24927;-77
2021/03/19 02:55:45;;;;;;;17.47;12.80;;;;;;;3.39;100.00;100342.31;640851;222;25619;-77
2021/03/19 02:58:13;;;;;;;17.50;12.43;;;;;;;3.53;99.98;100340.52;627335;225;24908;-77
2021/03/19 03:00:41;;;;;;;20.73;13.60;;;;;;;3.61;100.00;100336.63;625524;228;25149;-77
2021/03/19 03:03:09;;;;;;;21.90;13.83;;;;;;;3.65;100.00;100337.61;629347;228;24934;-77
2021/03/19 03:05:37;;;;;;;18.67;13.50;;;;;;;3.55;100.00;100340.42;629325;227;27088;-77
2021/03/19 03:08:05;;;;;;;23.03;13.90;;;;;;;3.39;100.00;100332.03;629099;225;24935;-77
2021/03/19 03:10:33;;;;;;;20.13;14.13;;;;;;;3.42;100.00;100339.09;627721;227;24932;-77
2021/03/19 03:13:01;;;;;;;18.30;14.13;;;;;;;3.28;100.00;100342.98;625721;225;25026;-76
2021/03/19 03:15:29;;;;;;;21.70;14.27;;;;;;;3.49;100.00;100342.08;632654;225;24946;-77
2021/03/19 03:17:57;;;;;;;26.20;14.70;;;;;;;3.50;100.00;100336.02;639617;220;24947;-77
2021/03/19 03:20:25;;;;;;;20.07;14.00;;;;;;;3.28;100.00;100346.83;638265;225;28099;-77
2021/03/19 03:22:53;;;;;;;21.83;14.43;;;;;;;3.51;100.00;100341.05;626999;226;24931;-77
2021/03/19 03:25:21;;;;;;;23.97;15.47;;;;;;;3.65;100.00;100335.50;621258;230;24896;-77
2021/03/19 03:27:49;;;;;;;20.17;13.80;;;;;;;3.66;100.00;100329.44;626112;225;24958;-76
2021/03/19 03:30:17;;;;;;;19.27;13.83;;;;;;;3.55;100.00;100341.71;639717;224;24916;-76
2021/03/19 03:32:45;;;;;;;21.07;13.43;;;;;;;3.61;100.00;100336.63;625746;229;24888;-76
2021/03/19 03:35:13;;;;;;;22.80;14.20;;;;;;;3.62;99.62;100340.84;620795;229;24891;-76
2021/03/19 03:37:41;;;;;;;20.93;12.97;;;;;;;3.62;100.00;100330.09;628250;225;24987;-77
2021/03/19 03:40:10;;;;;;;21.67;14.30;;;;;;;3.63;99.96;100330.92;637818;223;24907;-77
2021/03/19 03:42:38;;;;;;;22.77;14.33;;;;;;;3.72;99.99;100332.45;622350;229;25006;-76
2021/03/19 03:45:08;;;;;;;23.27;15.20;;;;;;;3.48;100.00;100333.55;625708;229;24965;-76
2021/03/19 03:47:35;;;;;;;25.47;14.60;;;;;;;3.69;100.00;100341.66;625912;225;24889;-76
2021/03/19 03:50:04;;;;;;;20.53;13.40;;;;;;;3.77;99.89;100339.40;624703;229;24890;-77
2021/03/19 03:52:32;;;;;;;18.70;13.50;;;;;;;3.83;99.79;100337.73;628402;226;24958;-77
2021/03/19 03:55:00;;;;;;;24.10;15.07;;;;;;;3.94;100.00;100339.63;625848;228;24931;-77
2021/03/19 03:57:28;;;;;;;23.00;14.00;;;;;;;3.86;100.00;100343.14;626167;224;24892;-76
2021/03/19 03:59:56;;;;;;;23.17;14.00;;;;;;;3.92;99.79;100335.47;625157;229;28128;-77
2021/03/19 04:02:23;;;;;;;25.30;17.48;;;;;;;4.37;97.75;100335.50;634306;223;32815;-77
2021/03/19 04:04:51;;;;;;;21.23;14.53;;;;;;;4.04;98.43;100339.83;637460;225;23881;-76
2021/03/19 04:07:19;;;;;;;23.30;14.63;;;;;;;4.01;99.23;100338.75;639366;221;24895;-77
2021/03/19 04:09:47;;;;;;;24.00;18.10;;;;;;;4.59;97.48;100336.98;628005;224;32903;-76
2021/03/19 04:12:15;;;;;;;27.03;18.20;;;;;;;4.80;95.79;100328.27;620486;228;32917;-76
2021/03/19 04:14:43;;;;;;;25.80;18.70;;;;;;;4.91;94.39;100324.92;634463;223;32899;-77
2021/03/19 04:17:11;;;;;;;26.10;19.03;;;;;;;4.91;93.87;100328.80;634239;221;32704;-77
2021/03/19 04:19:38;;;;;;;25.60;18.62;;;;;;;4.85;94.65;100328.77;633409;224;43399;-77
2021/03/19 04:22:06;;;;;;;26.57;19.25;;;;;;;5.03;93.18;100331.81;634716;224;32689;-76
2021/03/19 04:24:34;;;;;;;23.17;16.43;;;;;;;4.36;95.78;100335.11;638911;224;23798;-77
2021/03/19 04:27:02;;;;;;;24.03;14.90;;;;;;;4.13;97.14;100352.10;626817;229;24892;-77
2021/03/19 04:29:30;;;;;;;22.03;14.97;;;;;;;4.08;97.81;100354.12;627837;228;24893;-77
2021/03/19 04:31:58;;;;;;;25.17;17.23;;;;;;;4.21;95.99;100345.14;634916;223;32726;-77
2021/03/19 04:34:26;;;;;;;22.70;15.87;;;;;;;3.87;97.95;100361.51;641138;224;23790;-77
2021/03/19 04:36:54;;;;;;;23.00;15.37;;;;;;;3.78;97.96;100362.09;641599;224;24891;-77
2021/03/19 04:39:22;;;;;;;25.60;17.30;;;;;;;4.25;97.19;100353.05;620841;225;33112;-77
2021/03/19 04:41:50;;;;;;;26.33;19.00;;;;;;;4.46;95.73;100348.56;630144;225;33103;-77
2021/03/19 04:44:17;;;;;;;24.20;17.00;;;;;;;4.11;97.37;100365.07;637756;225;27022;-77
2021/03/19 04:46:45;;;;;;;22.60;16.00;;;;;;;4.10;97.47;100360.85;641012;223;24881;-77
2021/03/19 04:49:13;;;;;;;23.15;17.30;;;;;;;4.54;96.47;100357.55;611297;229;32794;-77
2021/03/19 04:51:41;;;;;;;24.10;16.63;;;;;;;4.17;96.60;100362.09;628198;228;23823;-76
2021/03/19 04:54:09;;;;;;;21.93;14.00;;;;;;;4.02;98.13;100365.66;626950;228;24950;-77
2021/03/19 04:56:37;;;;;;;24.27;15.63;;;;;;;4.08;98.34;100364.42;628967;227;24927;-77
2021/03/19 04:59:06;;;;;;;20.40;13.90;;;;;;;4.00;98.29;100371.83;626911;225;26631;-77
2021/03/19 05:01:34;;;;;;;24.67;16.85;;;;;;;4.41;96.46;100358.83;621590;228;32862;-77
2021/03/19 05:04:02;;;;;;;26.20;17.70;;;;;;;4.58;95.37;100358.98;619488;228;32828;-77
2021/03/19 05:06:30;;;;;;;24.37;17.70;;;;;;;4.52;94.54;100360.23;620513;228;32707;-77
2021/03/19 05:08:58;;;;;;;23.10;17.73;;;;;;;4.32;94.23;100358.14;635073;221;43917;-76
2021/03/19 05:11:26;;;;;;;22.00;15.60;;;;;;;3.72;97.51;100373.60;638355;224;23754;-76
2021/03/19 05:13:55;;;;;;;19.93;13.30;;;;;;;3.61;98.39;100380.34;626611;224;24990;-78
2021/03/19 05:16:22;;;;;;;20.17;13.90;;;;;;;3.42;98.84;100390.95;639470;224;24890;-77
2021/03/19 05:18:50;;;;;;;19.63;12.80;;;;;;;3.27;99.54;100390.16;639677;221;27091;-77
2021/03/19 05:21:18;;;;;;;17.27;13.13;;;;;;;3.24;100.00;100390.36;639940;223;24978;-77
2021/03/19 05:23:46;;;;;;;16.73;12.60;;;;;;;3.31;100.00;100392.90;639256;224;27038;-77
2021/03/19 05:26:14;;;;;;;14.87;11.27;;;;;;;3.16;100.00;100397.70;624708;229;24884;-77
2021/03/19 05:28:42;;;;;;;18.70;11.80;;;;;;;3.22;100.00;100401.16;626448;224;24886;-76
2021/03/19 05:31:09;;;;;;;20.33;12.63;;;;;;;3.27;100.00;100403.02;639799;224;24936;-76
2021/03/19 05:33:42;;;;;;;19.47;13.47;;;;;;;3.28;100.00;100405.48;639049;223;27004;-77
2021/03/19 05:36:10;;;;;;;20.07;13.43;;;;;;;3.22;100.00;100410.16;641267;224;24910;-77
2021/03/19 05:38:38;;;;;;;20.50;13.40;;;;;;;3.22;100.00;100415.30;625075;225;24907;-76
2021/03/19 05:41:06;;;;;;;21.20;15.20;;;;;;;3.23;100.00;100411.80;627340;227;27141;-76
2021/03/19 05:43:35;;;;;;;22.67;14.20;;;;;;;3.12;100.00;100420.19;626601;229;24907;-77
2021/03/19 05:46:05;;;;;;;21.97;14.70;;;;;;;2.97;100.00;100426.25;628938;228;26382;-77
2021/03/19 05:48:38;;;;;;;23.37;15.53;;;;;;;2.95;100.00;100426.77;627973;225;24943;-75
2021/03/19 05:51:07;;;;;;;22.00;14.43;;;;;;;2.97;100.00;100432.67;626027;229;24941;-75
2021/03/19 05:53:39;;;;;;;22.20;14.30;;;;;;;3.02;100.00;100428.53;625446;229;25256;-75
2021/03/19 05:56:13;;;;;;;28.20;19.27;;;;;;;3.15;100.00;100437.98;621799;227;32781;-75
2021/03/19 05:58:42;;;;;;;25.03;15.13;;;;;;;3.01;100.00;100437.98;638286;221;23753;-75
2021/03/19 06:01:09;;;;;;;24.43;14.53;;;;;;;2.93;100.00;100437.59;630007;225;24969;-75
2021/03/19 06:03:37;;;;;;;21.27;14.33;;;;;;;2.81;100.00;100443.00;625535;226;25022;-76
2021/03/19 06:06:06;;;;;;;29.60;18.20;;;;;;;3.06;100.00;100435.12;620295;226;32910;-77
2021/03/19 06:08:34;;;;;;;25.97;15.70;;;;;;;3.06;100.00;100439.81;633253;226;26002;-76
2021/03/19 06:11:06;;;;;;;25.77;15.00;;;;;;;3.07;100.00;100440.63;631542;225;24938;-75
2021/03/19 06:13:45;;;;;;;31.03;15.10;;;;;;;2.88;100.00;100442.20;619552;229;24976;-75
2021/03/19 06:16:20;;;;;;;27.30;14.70;;;;;;;2.89;100.00;100442.56;622188;228;24939;-76
2021/03/19 06:18:48;;;;;;;24.80;14.33;;;;;;;2.80;100.00;100443.09;640574;220;24911;-76
2021/03/19 06:21:21;;;;;;;27.27;15.00;;;;;;;2.79;100.00;100443.55;640087;224;25121;-75
2021/03/19 06:23:49;;;;;;;31.68;19.82;;;;;;;2.90;100.00;100445.49;636242;224;33050;-75
2021/03/19 06:26:21;;;;;;;28.07;15.73;;;;;;;2.81;100.00;100439.60;623420;229;23802;-76
2021/03/19 06:28:49;;;;;;;23.77;14.07;;;;;;;2.70;100.00;100445.84;627266;225;24924;-76
2021/03/19 06:31:19;;;;;;;24.10;14.30;;;;;;;2.63;100.00;100451.78;626024;227;24964;-75
2021/03/19 06:33:47;;;;;;;17.73;11.40;;;;;;;2.57;100.00;100455.54;640804;223;24937;-75
2021/03/19 06:36:17;;;;;;;15.97;9.70;;;;;;;2.45;100.00;100454.95;629223;225;25230;-75
2021/03/19 06:38:45;;;;;;;15.23;9.63;;;;;;;2.41;100.00;100457.80;632837;225;24943;-76
2021/03/19 06:41:24;;;;;;;17.40;10.80;;;;;;;2.33;100.00;100456.47;640206;224;24920;-76
2021/03/19 06:43:52;;;;;;;15.43;10.37;;;;;;;2.35;100.00;100462.34;621494;229;24979;-76
2021/03/19 06:46:20;;;;;;;16.57;10.87;;;;;;;2.48;100.00;100459.08;625822;229;27045;-75
2021/03/19 06:48:48;;;;;;;19.23;11.67;;;;;;;2.36;100.00;100458.86;638192;221;24953;-76
2021/03/19 06:51:24;;;;;;;18.10;11.17;;;;;;;2.51;100.00;100465.31;621744;229;25006;-76
2021/03/19 06:53:57;;;;;;;17.60;11.20;;;;;;;2.53;100.00;100462.20;625708;229;27061;-76
2021/03/19 06:56:25;;;;;;;27.43;12.67;;;;;;;2.53;100.00;100459.17;627571;227;28105;-75
2021/03/19 06:58:53;;;;;;;23.83;13.27;;;;;;;2.68;100.00;100464.73;624074;225;24953;-76
2021/03/19 07:01:31;;;;;;;25.23;12.87;;;;;;;2.72;100.00;100460.25;626783;229;28051;-76
2021/03/19 07:04:24;;;;;;;28.00;14.87;;;;;;;2.74;100.00;100455.84;640184;223;24896;-76
2021/03/19 07:06:54;;;;;;;32.87;16.30;;;;;;;2.77;100.00;100462.53;624598;224;24877;-76
2021/03/19 07:09:25;;;;;;;37.83;17.20;;;;;;;2.81;100.00;100462.26;623205;225;24987;-76
2021/03/19 07:11:56;;;;;;;33.17;18.70;;;;;;;2.90;100.00;100466.87;624247;229;25089;-76
2021/03/19 07:14:52;;;;;;;33.17;17.83;;;;;;;2.93;100.00;100467.97;624461;229;24918;-75
2021/03/19 07:17:44;;;;;;;39.20;20.67;;;;;;;3.00;100.00;100476.61;628255;225;25246;-75
2021/03/19 07:20:15;;;;;;;35.23;18.70;;;;;;;3.01;100.00;100473.95;617625;230;24908;-76
2021/03/19 07:22:49;;;;;;;37.03;19.70;;;;;;;2.95;100.00;100482.83;625894;229;24912;-76
2021/03/19 07:25:21;;;;;;;35.77;19.70;;;;;;;3.02;100.00;100476.88;620658;229;24891;-75
2021/03/19 07:27:55;;;;;;;40.50;19.80;;;;;;;3.09;100.00;100487.61;627421;225;24979;-75
2021/03/19 07:30:24;;;;;;;37.80;20.00;;;;;;;3.07;100.00;100480.45;640257;224;24887;-75
2021/03/19 07:33:21;;;;;;;36.87;20.10;;;;;;;3.21;100.00;100485.60;626025;229;24923;-75
2021/03/19 07:35:57;;;;;;;44.03;25.75;;;;;;;3.29;100.00;100488.55;615386;228;32887;-75
2021/03/19 07:38:52;;;;;;;41.17;22.70;;;;;;;3.30;100.00;100490.66;626733;225;23766;-76
2021/03/19 07:41:27;;;;;;;38.30;19.93;;;;;;;3.37;100.00;100496.61;627493;227;24918;-76
2021/03/19 07:44:06;;;;;;;36.07;19.60;;;;;;;3.35;100.00;100506.16;629217;226;24941;-76
2021/03/19 07:46:34;;;;;;;35.47;21.10;;;;;;;3.31;100.00;100500.85;626805;229;28071;-75
2021/03/19 07:49:08;;;;;;;40.20;21.70;;;;;;;3.29;100.00;100507.83;626360;224;24960;-76
2021/03/19 07:51:41;;;;;;;47.00;27.30;;;;;;;3.46;100.00;100508.92;627698;225;43688;-76
2021/03/19 07:54:11;;;;;;;42.57;24.80;;;;;;;3.52;100.00;100511.60;633589;226;24125;-76
2021/03/19 07:56:48;;;;;;;45.70;28.45;;;;;;;3.58;100.00;100511.22;618254;229;32792;-75
2021/03/19 07:59:20;;;;;;;40.50;23.90;;;;;;;3.72;100.00;100518.92;630161;224;23916;-76
2021/03/19 08:01:49;;;;;;;45.20;25.43;;;;;;;3.58;100.00;100513.79;627664;228;24951;-76
2021/03/19 08:04:21;;;;;;;46.83;25.50;;;;;;;3.64;100.00;100513.86;625842;229;25119;-76
2021/03/19 08:06:50;;;;;;;44.47;24.97;;;;;;;3.60;100.00;100518.37;639153;223;24867;-76
2021/03/19 08:09:25;;;;;;;47.57;27.73;;;;;;;3.60;100.00;100515.80;639313;221;24885;-75
2021/03/19 08:11:53;;;;;;;42.40;25.40;;;;;;;3.57;100.00;100532.25;624109;229;24897;-76
2021/03/19 08:14:31;;;;;;;44.20;26.23;;;;;;;3.44;100.00;100528.77;628485;227;28115;-75
2021/03/19 08:16:59;;;;;;;44.10;22.60;;;;;;;3.26;100.00;100526.83;639831;224;25201;-75
2021/03/19 08:19:28;;;;;;;44.57;27.70;;;;;;;3.32;100.00;100522.23;632986;221;33001;-76
2021/03/19 08:21:59;;;;;;;44.87;29.27;;;;;;;3.33;100.00;100531.14;620119;230;33043;-75
2021/03/19 08:24:30;;;;;;;42.73;28.50;;;;;;;3.48;100.00;100534.54;633004;224;35004;-76
2021/03/19 08:27:01;;;;;;;38.87;23.83;;;;;;;3.54;100.00;100535.02;622305;230;24998;-75
2021/03/19 08:29:33;;;;;;;37.07;23.63;;;;;;;3.66;100.00;100538.59;620918;230;24948;-75
2021/03/19 08:32:02;;;;;;;36.67;22.57;;;;;;;3.76;100.00;100544.81;626303;229;24935;-75
2021/03/19 08:34:33;;;;;;;36.80;20.83;;;;;;;3.51;100.00;100543.34;621255;229;24907;-76
2021/03/19 08:37:01;;;;;;;33.70;20.30;;;;;;;3.73;100.00;100551.89;638502;224;24923;-78
2021/03/19 08:39:30;;;;;;;36.00;20.73;;;;;;;3.82;100.00;100557.77;624593;225;24905;-75
2021/03/19 08:41:59;;;;;;;39.23;22.43;;;;;;;3.88;100.00;100558.21;627927;228;24961;-75
2021/03/19 08:44:27;;;;;;;30.57;18.63;;;;;;;3.83;100.00;100555.11;622047;230;25008;-75
2021/03/19 08:46:56;;;;;;;30.77;20.57;;;;;;;3.96;97.83;100541.03;632888;224;32766;-75
2021/03/19 08:49:43;;;;;;;28.07;18.47;;;;;;;3.98;96.04;100540.94;625601;225;23785;-75
2021/03/19 08:52:23;;;;;;;30.97;20.62;;;;;;;4.40;97.35;100543.85;619185;229;32751;-75
2021/03/19 08:55:14;;;;;;;25.73;16.40;;;;;;;4.31;95.52;100542.67;629127;227;23853;-75
2021/03/19 08:57:42;;;;;;;26.30;14.83;;;;;;;4.34;95.43;100545.51;627111;224;24941;-76
2021/03/19 09:00:11;;;;;;;25.00;15.33;;;;;;;4.59;96.58;100549.93;639380;225;24854;-75
2021/03/19 09:02:45;;;;;;;25.07;15.70;;;;;;;4.44;95.45;100556.88;641181;223;25060;-75
2021/03/19 09:05:20;;;;;;;22.73;15.10;;;;;;;4.30;95.82;100564.66;632885;224;24914;-75
2021/03/19 09:08:00;;;;;;;27.70;17.43;;;;;;;4.40;97.05;100552.41;640659;221;24909;-75
2021/03/19 09:10:39;;;;;;;32.43;14.80;;;;;;;4.29;96.32;100552.25;639809;224;24922;-75
2021/03/19 09:13:13;;;;;;;24.63;16.20;;;;;;;4.21;96.87;100578.92;626656;229;24889;-75
2021/03/19 09:15:41;;;;;;;22.80;15.50;;;;;;;3.95;96.08;100580.55;640482;223;24885;-75
2021/03/19 09:18:09;;;;;;;27.50;15.60;;;;;;;3.93;97.39;100587.51;640514;221;24881;-76
2021/03/19 09:21:00;;;;;;;21.97;14.07;;;;;;;4.01;97.13;100599.92;637885;224;25206;-75
2021/03/19 09:23:30;;;;;;;19.17;12.97;;;;;;;3.93;95.43;100588.80;632813;224;24960;-75
2021/03/19 09:25:59;;;;;;;18.97;13.20;;;;;;;3.93;95.10;100591.37;630946;225;24951;-75
2021/03/19 09:28:40;;;;;;;24.00;14.63;;;;;;;4.07;95.86;100596.95;637055;221;24887;-75
2021/03/19 09:31:14;;;;;;;24.52;17.23;;;;;;;4.40;96.33;100599.21;634598;224;32862;-75
2021/03/19 09:33:56;;;;;;;20.10;13.73;;;;;;;4.28;93.68;100595.65;638449;224;23829;-75
2021/03/19 09:36:34;;;;;;;17.87;12.70;;;;;;;4.14;94.08;100596.50;639286;224;24915;-75
2021/03/19 09:39:02;;;;;;;19.60;11.70;;;;;;;4.08;93.40;100598.18;637612;222;24888;-75
2021/03/19 09:41:49;;;;;;;17.43;11.13;;;;;;;4.20;94.64;100599.14;637111;225;24961;-75
2021/03/19 09:44:25;;;;;;;18.20;11.30;;;;;;;3.86;94.36;100592.22;620596;230;25065;-74
2021/03/19 09:46:59;;;;;;;21.97;12.60;;;;;;;3.83;94.02;100591.58;625114;229;24928;-75
2021/03/19 09:49:27;;;;;;;19.40;12.07;;;;;;;3.88;94.64;100601.12;629259;225;28118;-75
2021/03/19 09:51:55;;;;;;;21.90;13.43;;;;;;;4.01;94.47;100605.89;628922;228;24959;-75
2021/03/19 09:54:34;;;;;;;21.67;13.30;;;;;;;3.99;95.04;100610.31;626233;229;25343;-75
2021/03/19 09:57:05;;;;;;;21.13;12.00;;;;;;;3.97;95.12;100607.01;624752;229;24900;-75
2021/03/19 09:59:34;;;;;;;20.37;13.07;;;;;;;4.03;94.19;100607.08;626182;225;24999;-75
2021/03/19 10:02:02;;;;;;;19.07;12.20;;;;;;;4.12;93.92;100610.39;626304;229;25166;-75
2021/03/19 10:04:31;;;;;;;19.87;12.20;;;;;;;4.43;91.12;100591.28;630898;224;24948;-75
2021/03/19 10:06:59;;;;;;;18.40;12.07;;;;;;;4.65;89.80;100598.49;625704;229;25025;-75
2021/03/19 10:09:27;;;;;;;17.73;11.30;;;;;;;4.65;91.52;100611.38;639688;221;24911;-74
2021/03/19 10:11:59;;;;;;;18.40;11.90;;;;;;;4.49;92.00;100612.78;623305;227;25038;-75
2021/03/19 10:14:28;;;;;;;19.50;12.40;;;;;;;4.50;93.27;100618.29;630979;224;25015;-76
2021/03/19 10:17:09;;;;;;;23.93;12.83;;;;;;;4.46;94.04;100625.39;633065;225;24945;-75
2021/03/19 10:19:37;;;;;;;22.10;12.20;;;;;;;4.19;93.04;100632.25;637934;225;24957;-76
2021/03/19 10:22:05;;;;;;;17.93;11.90;;;;;;;4.24;93.90;100635.38;625547;229;24938;-75
2021/03/19 10:24:33;;;;;;;15.90;10.83;;;;;;;4.26;93.45;100630.14;626277;228;24894;-75
2021/03/19 10:27:01;;;;;;;15.00;10.57;;;;;;;4.21;92.83;100628.28;628485;228;24955;-75
2021/03/19 10:29:29;;;;;;;12.93;8.70;;;;;;;4.18;92.52;100614.69;626550;225;24902;-75
2021/03/19 10:31:57;;;;;;;16.97;10.13;;;;;;;4.39;92.27;100621.56;638131;225;24903;-75
2021/03/19 10:34:28;;;;;;;12.10;8.40;;;;;;;4.62;92.46;100632.15;624615;229;24950;-75
2021/03/19 10:36:56;;;;;;;10.77;7.43;;;;;;;4.27;91.16;100634.36;629088;228;25003;-75
2021/03/19 10:39:28;;;;;;;13.73;8.70;;;;;;;4.13;92.64;100632.17;640109;221;27328;-75
2021/03/19 10:42:01;;;;;;;11.37;8.37;;;;;;;4.37;92.94;100646.58;641275;224;24913;-75
2021/03/19 10:44:30;;;;;;;14.00;9.20;;;;;;;4.47;93.65;100639.91;622578;229;25999;-75
2021/03/19 10:46:57;;;;;;;12.23;8.37;;;;;;;4.53;91.52;100631.00;639215;224;24951;-75
2021/03/19 10:49:25;;;;;;;11.97;9.27;;;;;;;4.70;91.63;100636.38;619723;225;32750;-75
2021/03/19 10:51:53;;;;;;;12.37;9.68;;;;;;;4.77;90.22;100632.47;619630;229;32877;-75
2021/03/19 10:54:22;;;;;;;11.15;8.60;;;;;;;4.72;89.40;100631.48;622844;227;32879;-75
2021/03/19 10:56:51;;;;;;;11.57;8.07;;;;;;;4.59;89.68;100649.09;629046;228;23792;-75
2021/03/19 10:59:21;;;;;;;10.72;8.85;;;;;;;4.47;90.86;100646.81;633133;221;32625;-75
2021/03/19 11:01:49;;;;;;;10.70;8.17;;;;;;;4.54;91.95;100664.84;638711;225;23746;-75
2021/03/19 11:04:26;;;;;;;9.53;6.53;;;;;;;4.37;90.32;100656.05;637225;225;25116;-75
2021/03/19 11:06:54;;;;;;;11.63;9.63;;;;;;;4.37;90.59;100659.45;631039;225;32571;-75
2021/03/19 11:09:22;;;;;;;12.60;9.40;;;;;;;4.49;92.97;100678.45;633645;225;24019;-75
2021/03/19 11:11:50;;;;;;;14.87;9.23;;;;;;;4.57;92.03;100672.38;636686;225;25932;-75
2021/03/19 11:14:17;;;;;;;14.73;9.00;;;;;;;4.79;91.55;100663.31;638213;225;24867;-75
2021/03/19 11:16:45;;;;;;;14.40;9.17;;;;;;;5.01;88.96;100649.41;639202;223;24857;-78
2021/03/19 11:19:14;;;;;;;13.40;8.37;;;;;;;5.32;88.01;100636.16;638581;220;24878;-77
2021/03/19 11:21:42;;;;;;;12.53;8.50;;;;;;;5.39;86.34;100635.78;638303;223;25011;-76
2021/03/19 11:24:20;;;;;;;9.70;7.53;;;;;;;5.39;83.60;100624.17;638522;224;25962;-76
2021/03/19 11:26:56;;;;;;;8.67;7.13;;;;;;;5.33;83.86;100626.67;636689;225;24879;-75
2021/03/19 11:29:26;;;;;;;9.77;7.20;;;;;;;5.43;82.85;100624.32;638876;220;28039;-77
2021/03/19 11:31:56;;;;;;;9.50;6.43;;;;;;;5.50;83.11;100636.72;639532;222;24876;-76
2021/03/19 11:34:29;;;;;;;10.17;6.57;;;;;;;5.22;81.41;100633.85;636467;224;24879;-75